createdAt,value
2022-07-27T00:01:06.906Z,0.97
2022-07-27T00:03:34.461Z,1.20
2022-07-27T00:06:01.674Z,1.00
2022-07-27T00:08:28.841Z,1.00
2022-07-27T00:10:55.873Z,1.13
2022-07-27T00:13:23.120Z,1.30
2022-07-27T00:15:50.316Z,1.03
2022-07-27T00:18:17.559Z,1.30
2022-07-27T00:20:44.640Z,1.07
2022-07-27T00:23:11.752Z,0.90
2022-07-27T00:25:38.922Z,1.00
2022-07-27T00:28:06.443Z,0.97
2022-07-27T00:30:33.685Z,1.10
2022-07-27T00:33:00.750Z,0.90
2022-07-27T00:35:27.971Z,1.20
2022-07-27T00:37:55.020Z,1.20
2022-07-27T00:40:22.078Z,1.00
2022-07-27T00:42:49.148Z,1.00
2022-07-27T00:45:16.261Z,1.50
2022-07-27T00:47:43.242Z,1.10
2022-07-27T00:50:10.736Z,1.10
2022-07-27T00:52:38.971Z,1.17
2022-07-27T00:55:06.771Z,1.20
2022-07-27T00:57:33.882Z,1.10
2022-07-27T01:00:21.915Z,1.00
2022-07-27T01:02:51.929Z,1.30
2022-07-27T01:05:19.334Z,1.10
2022-07-27T01:07:49.385Z,1.07
2022-07-27T01:10:17.532Z,1.00
2022-07-27T01:12:45.822Z,0.97
2022-07-27T01:15:13.277Z,1.53
2022-07-27T01:17:40.428Z,1.10
2022-07-27T01:20:08.315Z,1.20
2022-07-27T01:22:35.750Z,1.40
2022-07-27T01:25:02.842Z,1.17
2022-07-27T01:27:29.894Z,1.37
2022-07-27T01:29:57.195Z,1.07
2022-07-27T01:32:24.360Z,1.10
2022-07-27T01:34:51.408Z,1.10
2022-07-27T01:37:18.457Z,1.17
2022-07-27T01:39:45.504Z,1.03
2022-07-27T01:42:12.805Z,1.23
2022-07-27T01:44:39.943Z,0.93
2022-07-27T01:47:14.021Z,1.13
2022-07-27T01:49:42.088Z,1.10
2022-07-27T01:52:09.114Z,1.40
2022-07-27T01:54:36.250Z,1.30
2022-07-27T01:57:03.320Z,1.40
2022-07-27T01:59:30.365Z,1.20
2022-07-27T02:01:57.434Z,1.27
2022-07-27T02:04:24.919Z,1.00
2022-07-27T02:06:52.188Z,1.00
2022-07-27T02:09:20.930Z,1.23
2022-07-27T02:12:06.470Z,1.00
2022-07-27T02:14:33.582Z,1.00
2022-07-27T02:17:00.832Z,1.30
2022-07-27T02:19:28.949Z,1.20
2022-07-27T02:21:55.911Z,1.03
2022-07-27T02:24:22.942Z,1.30
2022-07-27T02:26:50.066Z,1.10
2022-07-27T02:29:17.195Z,1.37
2022-07-27T02:31:44.246Z,1.17
2022-07-27T02:34:11.261Z,0.87
2022-07-27T02:36:38.337Z,1.30
2022-07-27T02:39:05.569Z,1.13
2022-07-27T02:41:32.673Z,1.17
2022-07-27T02:43:59.682Z,1.23
2022-07-27T02:46:26.935Z,1.30
2022-07-27T02:48:54.114Z,1.30
2022-07-27T02:51:21.218Z,1.33
2022-07-27T02:53:48.349Z,1.50
2022-07-27T02:56:15.376Z,1.40
2022-07-27T02:58:42.417Z,1.40
2022-07-27T03:01:09.468Z,1.50
2022-07-27T03:03:38.131Z,1.20
2022-07-27T03:06:08.511Z,1.10
2022-07-27T03:08:36.480Z,1.27
2022-07-27T03:11:04.162Z,1.50
2022-07-27T03:13:31.303Z,1.50
2022-07-27T03:15:58.458Z,1.53
2022-07-27T03:18:25.832Z,1.40
2022-07-27T03:20:53.086Z,1.27
2022-07-27T03:23:20.584Z,1.10
2022-07-27T03:25:47.593Z,1.40
2022-07-27T03:28:14.633Z,1.40
2022-07-27T03:30:41.774Z,1.53
2022-07-27T03:33:09.000Z,1.27
2022-07-27T03:35:35.977Z,1.40
2022-07-27T03:38:03.099Z,1.57
2022-07-27T03:40:32.936Z,1.33
2022-07-27T03:43:00.747Z,1.37
2022-07-27T03:45:27.845Z,1.70
2022-07-27T03:47:55.078Z,1.50
2022-07-27T03:50:22.750Z,1.30
2022-07-27T03:52:50.589Z,1.70
2022-07-27T03:55:18.038Z,1.30
2022-07-27T03:57:45.105Z,1.37
2022-07-27T04:00:14.115Z,1.53
2022-07-27T04:02:42.091Z,1.60
2022-07-27T04:05:10.335Z,1.53
2022-07-27T04:07:37.722Z,1.30
2022-07-27T04:10:05.289Z,1.60
2022-07-27T04:12:32.543Z,1.40
2022-07-27T04:14:59.584Z,1.67
2022-07-27T04:17:55.209Z,1.70
2022-07-27T04:20:14.719Z,1.73
2022-07-27T04:22:42.013Z,1.30
2022-07-27T04:25:09.666Z,1.67
2022-07-27T04:27:36.687Z,1.60
2022-07-27T04:30:09.206Z,1.43
2022-07-27T04:32:36.926Z,1.77
2022-07-27T04:35:04.359Z,1.80
2022-07-27T04:37:32.698Z,2.00
2022-07-27T04:40:00.960Z,2.10
2022-07-27T04:42:29.914Z,1.63
2022-07-27T04:44:57.601Z,1.47
2022-07-27T04:47:24.580Z,1.60
2022-07-27T04:49:51.592Z,1.77
2022-07-27T04:52:18.806Z,1.40
2022-07-27T04:54:53.419Z,1.43
2022-07-27T04:57:21.367Z,2.00
2022-07-27T04:59:48.423Z,1.63
2022-07-27T05:02:15.992Z,1.60
2022-07-27T05:04:43.046Z,1.57
2022-07-27T05:07:10.013Z,1.50
2022-07-27T05:09:37.077Z,1.70
2022-07-27T05:12:04.472Z,1.40
2022-07-27T05:14:31.421Z,1.60
2022-07-27T05:16:58.478Z,1.60
2022-07-27T05:19:39.979Z,1.60
2022-07-27T05:22:08.754Z,1.50
2022-07-27T05:24:35.809Z,1.60
2022-07-27T05:27:03.314Z,1.30
2022-07-27T05:29:30.741Z,1.50
2022-07-27T05:31:57.783Z,1.40
2022-07-27T05:34:25.108Z,1.60
2022-07-27T05:36:52.106Z,1.60
2022-07-27T05:39:19.349Z,1.80
2022-07-27T05:41:46.497Z,1.90
2022-07-27T05:44:16.088Z,1.23
2022-07-27T05:46:43.189Z,1.43
2022-07-27T05:49:11.812Z,1.73
2022-07-27T05:51:39.052Z,1.10
2022-07-27T05:54:06.168Z,1.57
2022-07-27T05:56:33.233Z,1.93
2022-07-27T05:59:07.972Z,1.67
2022-07-27T06:01:35.198Z,1.67
2022-07-27T06:04:02.358Z,1.70
2022-07-27T06:06:48.148Z,1.93
2022-07-27T06:09:15.628Z,2.03
2022-07-27T06:11:43.200Z,1.90
2022-07-27T06:14:11.081Z,1.70
2022-07-27T06:16:38.244Z,1.67
2022-07-27T06:19:06.187Z,1.70
2022-07-27T06:21:33.308Z,1.80
2022-07-27T06:24:00.338Z,1.63
2022-07-27T06:26:27.349Z,2.00
2022-07-27T06:28:58.832Z,1.77
2022-07-27T06:31:27.150Z,1.80
2022-07-27T06:33:56.286Z,1.87
2022-07-27T06:36:27.474Z,2.00
2022-07-27T06:38:54.435Z,1.60
2022-07-27T06:41:21.421Z,2.10
2022-07-27T06:43:48.529Z,2.17
2022-07-27T06:46:15.698Z,2.10
2022-07-27T06:48:42.974Z,2.13
2022-07-27T06:51:10.062Z,1.80
2022-07-27T06:53:37.504Z,2.03
2022-07-27T06:56:05.096Z,1.77
2022-07-27T06:58:33.676Z,1.60
2022-07-27T07:01:02.533Z,2.03
2022-07-27T07:03:29.992Z,1.90
2022-07-27T07:05:57.739Z,2.13
2022-07-27T07:08:24.786Z,2.00
2022-07-27T07:10:52.243Z,2.33
2022-07-27T07:13:19.473Z,2.20
2022-07-27T07:15:46.604Z,1.73
2022-07-27T07:18:14.525Z,1.63
2022-07-27T07:20:42.419Z,1.50
2022-07-27T07:23:09.901Z,1.73
2022-07-27T07:25:38.091Z,1.73
2022-07-27T07:28:07.265Z,1.80
2022-07-27T07:30:34.768Z,1.77
2022-07-27T07:33:02.311Z,1.50
2022-07-27T07:35:29.450Z,1.70
2022-07-27T07:37:56.465Z,1.60
2022-07-27T07:43:11.699Z,2.00
2022-07-27T07:45:50.834Z,1.50
2022-07-27T07:48:19.909Z,1.90
2022-07-27T07:50:52.464Z,2.00
2022-07-27T07:53:24.347Z,1.50
2022-07-27T07:55:52.857Z,1.87
2022-07-27T07:58:20.848Z,1.90
2022-07-27T08:00:48.418Z,1.97
2022-07-27T08:03:15.818Z,1.53
2022-07-27T08:05:43.052Z,1.57
2022-07-27T08:08:10.228Z,1.77
2022-07-27T08:10:37.595Z,1.90
2022-07-27T08:13:05.212Z,2.13
2022-07-27T08:15:35.694Z,1.60
2022-07-27T08:18:07.109Z,2.00
2022-07-27T08:20:34.825Z,1.70
2022-07-27T08:23:01.870Z,1.93
2022-07-27T08:25:28.964Z,1.80
2022-07-27T08:27:56.361Z,2.00
2022-07-27T08:30:24.462Z,1.70
2022-07-27T08:32:55.169Z,1.97
2022-07-27T08:35:22.869Z,1.50
2022-07-27T08:37:49.924Z,1.80
2022-07-27T08:43:06.702Z,1.57
2022-07-27T08:45:34.236Z,1.60
2022-07-27T08:48:01.797Z,1.50
2022-07-27T08:50:30.587Z,1.37
2022-07-27T08:53:06.191Z,1.60
2022-07-27T08:55:43.993Z,1.47
2022-07-27T08:58:12.650Z,1.57
2022-07-27T09:00:44.838Z,1.70
2022-07-27T09:03:18.566Z,1.60
2022-07-27T09:05:47.931Z,1.40
2022-07-27T09:08:17.882Z,1.37
2022-07-27T09:10:45.001Z,1.43
2022-07-27T09:13:38.355Z,1.70
2022-07-27T09:16:19.698Z,1.73
2022-07-27T09:18:48.306Z,1.80
2022-07-27T09:21:21.058Z,1.60
2022-07-27T09:24:23.366Z,1.70
2022-07-27T09:27:05.840Z,1.70
2022-07-27T09:29:37.244Z,1.97
2022-07-27T09:32:17.746Z,1.80
2022-07-27T09:34:45.760Z,1.40
2022-07-27T09:37:27.510Z,1.77
2022-07-27T09:40:25.519Z,2.07
2022-07-27T09:44:12.094Z,1.23
2022-07-27T09:46:09.327Z,1.67
2022-07-27T09:48:37.113Z,1.80
2022-07-27T09:51:43.573Z,1.13
2022-07-27T09:53:56.946Z,1.37
2022-07-27T09:56:29.914Z,1.90
2022-07-27T09:58:59.664Z,1.43
2022-07-27T10:01:35.413Z,1.60
2022-07-27T10:04:05.603Z,1.50
2022-07-27T10:06:47.685Z,1.70
2022-07-27T10:09:20.934Z,1.57
2022-07-27T10:11:48.622Z,1.73
2022-07-27T10:14:16.476Z,1.50
2022-07-27T10:16:48.437Z,1.30
2022-07-27T10:19:33.535Z,1.63
2022-07-27T10:22:01.178Z,1.43
2022-07-27T10:24:39.342Z,1.50
2022-07-27T10:27:28.295Z,1.50
2022-07-27T10:29:57.069Z,1.90
2022-07-27T10:32:31.381Z,1.53
2022-07-27T10:34:59.907Z,1.57
2022-07-27T10:37:32.167Z,1.80
2022-07-27T10:40:23.917Z,1.63
2022-07-27T10:42:54.700Z,1.43
2022-07-27T10:45:22.435Z,1.40
2022-07-27T10:47:52.502Z,2.23
2022-07-27T10:50:22.653Z,1.60
2022-07-27T10:53:06.007Z,1.80
2022-07-27T10:55:44.544Z,1.57
2022-07-27T10:58:52.240Z,1.87
2022-07-27T11:01:20.472Z,1.70
2022-07-27T11:03:52.638Z,1.60
2022-07-27T11:07:15.065Z,1.50
2022-07-27T11:11:58.817Z,1.40
2022-07-27T11:14:31.250Z,1.53
2022-07-27T11:17:33.470Z,1.70
2022-07-27T11:19:59.230Z,1.53
2022-07-27T11:25:28.307Z,1.57
2022-07-27T11:27:55.360Z,1.47
2022-07-27T11:30:27.560Z,1.60
2022-07-27T11:32:55.432Z,1.60
2022-07-27T11:35:22.843Z,1.50
2022-07-27T11:38:05.723Z,1.50
2022-07-27T11:40:59.380Z,1.30
2022-07-27T11:43:45.589Z,1.60
2022-07-27T11:46:27.634Z,1.57
2022-07-27T11:49:26.702Z,1.70
2022-07-27T11:52:12.139Z,1.70
2022-07-27T11:54:41.635Z,1.93
2022-07-27T11:57:18.807Z,1.87
2022-07-27T11:59:46.456Z,1.60
2022-07-27T12:02:19.943Z,1.70
2022-07-27T12:04:49.926Z,2.33
2022-07-27T12:07:20.096Z,1.80
2022-07-27T12:09:58.931Z,1.47
2022-07-27T12:12:27.299Z,1.53
2022-07-27T12:14:59.290Z,1.80
2022-07-27T12:17:38.190Z,1.60
2022-07-27T12:20:11.383Z,1.50
2022-07-27T12:22:53.885Z,1.53
2022-07-27T12:25:29.867Z,1.50
2022-07-27T12:28:08.885Z,1.40
2022-07-27T12:30:41.242Z,1.80
2022-07-27T12:33:35.563Z,1.50
2022-07-27T12:36:07.966Z,1.63
2022-07-27T12:38:48.655Z,1.40
2022-07-27T12:41:26.994Z,1.30
2022-07-27T12:44:12.273Z,1.90
2022-07-27T12:46:59.446Z,1.63
2022-07-27T12:49:28.767Z,1.73
2022-07-27T12:52:06.239Z,1.97
2022-07-27T12:54:33.738Z,1.50
2022-07-27T12:57:01.291Z,1.60
2022-07-27T12:59:28.352Z,1.50
2022-07-27T13:01:56.978Z,1.87
2022-07-27T13:04:24.113Z,1.40
2022-07-27T13:06:51.310Z,1.70
2022-07-27T13:09:18.319Z,1.60
2022-07-27T13:11:48.064Z,1.60
2022-07-27T13:14:15.613Z,1.90
2022-07-27T13:16:42.716Z,1.87
2022-07-27T13:19:10.435Z,1.60
2022-07-27T13:21:37.970Z,1.90
2022-07-27T13:24:07.127Z,1.67
2022-07-27T13:26:34.191Z,1.80
2022-07-27T13:29:01.336Z,1.73
2022-07-27T13:31:33.463Z,1.50
2022-07-27T13:34:00.575Z,1.60
2022-07-27T13:36:27.617Z,1.60
2022-07-27T13:38:54.658Z,1.40
2022-07-27T13:41:22.338Z,1.60
2022-07-27T13:43:49.400Z,1.30
2022-07-27T13:46:16.518Z,1.70
2022-07-27T13:48:43.754Z,1.63
2022-07-27T13:51:10.893Z,1.50
2022-07-27T13:53:37.923Z,1.60
2022-07-27T13:56:07.381Z,2.00
2022-07-27T13:58:34.796Z,2.17
2022-07-27T14:01:07.135Z,1.60
2022-07-27T14:03:35.638Z,1.60
2022-07-27T14:06:03.120Z,1.80
2022-07-27T14:08:33.504Z,1.90
2022-07-27T14:11:00.573Z,1.20
2022-07-27T14:13:29.467Z,1.50
2022-07-27T14:15:56.562Z,1.60
2022-07-27T14:18:26.584Z,1.60
2022-07-27T14:20:54.814Z,1.63
2022-07-27T14:23:22.442Z,1.60
2022-07-27T14:25:51.473Z,1.40
2022-07-27T14:28:18.676Z,1.30
2022-07-27T14:30:46.554Z,1.70
2022-07-27T14:33:13.789Z,1.47
2022-07-27T14:35:42.572Z,1.57
2022-07-27T14:38:09.894Z,1.47
2022-07-27T14:40:37.354Z,1.40
2022-07-27T14:43:05.246Z,1.60
2022-07-27T14:45:44.403Z,1.80
2022-07-27T14:48:22.797Z,1.60
2022-07-27T14:50:52.335Z,1.80
2022-07-27T14:53:19.491Z,1.50
2022-07-27T14:55:46.514Z,1.90
2022-07-27T14:58:13.524Z,1.50
2022-07-27T15:00:40.609Z,1.60
2022-07-27T15:03:07.775Z,1.60
2022-07-27T15:05:49.740Z,1.53
2022-07-27T15:08:21.496Z,1.27
2022-07-27T15:10:49.048Z,1.60
2022-07-27T15:13:17.831Z,1.50
2022-07-27T15:15:48.447Z,1.57
2022-07-27T15:18:18.841Z,1.57
2022-07-27T15:20:46.373Z,1.50
2022-07-27T15:23:14.009Z,1.47
2022-07-27T15:25:41.041Z,1.67
2022-07-27T15:28:08.072Z,1.40
2022-07-27T15:30:38.662Z,1.50
2022-07-27T15:33:06.391Z,1.60
2022-07-27T15:35:33.489Z,1.57
2022-07-27T15:38:00.507Z,1.70
2022-07-27T15:40:41.812Z,1.67
2022-07-27T15:43:14.258Z,1.40
2022-07-27T15:45:45.466Z,1.47
2022-07-27T15:48:13.698Z,1.80
2022-07-27T15:50:43.233Z,1.40
2022-07-27T15:53:11.213Z,1.60
2022-07-27T15:55:38.365Z,1.37
2022-07-27T15:58:06.262Z,1.40
2022-07-27T16:00:39.595Z,1.60
2022-07-27T16:03:12.174Z,1.63
2022-07-27T16:05:41.869Z,1.40
2022-07-27T16:08:09.983Z,1.43
2022-07-27T16:10:38.421Z,1.70
2022-07-27T16:13:06.277Z,1.57
2022-07-27T16:15:53.000Z,1.80
2022-07-27T16:18:20.342Z,1.80
2022-07-27T16:20:47.541Z,1.60
2022-07-27T16:23:18.986Z,1.40
2022-07-27T16:26:07.967Z,1.60
2022-07-27T16:28:42.376Z,2.00
2022-07-27T16:31:12.266Z,1.40
2022-07-27T16:33:40.211Z,1.50
2022-07-27T16:36:08.282Z,1.50
2022-07-27T16:38:37.211Z,1.67
2022-07-27T16:41:07.391Z,1.60
2022-07-27T16:43:38.140Z,1.27
2022-07-27T16:46:10.263Z,1.67
2022-07-27T16:48:42.166Z,1.30
2022-07-27T16:51:12.037Z,1.63
2022-07-27T16:53:41.430Z,1.70
2022-07-27T16:56:09.260Z,1.80
2022-07-27T16:58:36.678Z,1.40
2022-07-27T17:01:04.638Z,1.80
2022-07-27T17:03:31.826Z,1.50
2022-07-27T17:06:02.171Z,1.63
2022-07-27T17:08:32.672Z,1.50
2022-07-27T17:11:02.409Z,1.40
2022-07-27T17:13:33.579Z,1.40
2022-07-27T17:16:06.167Z,1.80
2022-07-27T17:18:39.935Z,1.70
2022-07-27T17:21:12.610Z,1.50
2022-07-27T17:23:41.216Z,1.43
2022-07-27T17:26:09.664Z,1.50
2022-07-27T17:28:39.534Z,1.50
2022-07-27T17:31:09.422Z,1.70
2022-07-27T17:33:37.842Z,1.60
2022-07-27T17:36:08.375Z,1.30
2022-07-27T17:38:39.350Z,1.70
2022-07-27T17:41:06.410Z,1.90
2022-07-27T17:43:38.789Z,3.57
2022-07-27T17:46:06.665Z,1.70
2022-07-27T17:48:35.439Z,1.73
2022-07-27T17:51:03.285Z,1.73
2022-07-27T17:53:30.350Z,1.60
2022-07-27T17:55:57.489Z,1.70
2022-07-27T17:58:29.757Z,1.43
2022-07-27T18:00:57.434Z,1.47
2022-07-27T18:03:24.612Z,1.43
2022-07-27T18:05:51.970Z,1.60
2022-07-27T18:08:19.266Z,1.40
2022-07-27T18:10:46.433Z,1.73
2022-07-27T18:13:13.555Z,1.67
2022-07-27T18:15:50.825Z,1.47
2022-07-27T18:18:20.613Z,1.53
2022-07-27T18:20:52.030Z,1.77
2022-07-27T18:23:20.485Z,1.50
2022-07-27T18:25:48.503Z,1.30
2022-07-27T18:28:16.390Z,1.40
2022-07-27T18:30:47.947Z,1.50
2022-07-27T18:33:15.864Z,1.20
2022-07-27T18:35:43.692Z,1.77
2022-07-27T18:38:10.984Z,1.40
2022-07-27T18:40:43.112Z,1.60
2022-07-27T18:43:10.839Z,1.70
2022-07-27T18:45:45.198Z,1.57
2022-07-27T18:48:12.248Z,1.37
2022-07-27T18:50:40.389Z,1.63
2022-07-27T18:53:08.475Z,1.53
2022-07-27T18:55:36.163Z,1.80
2022-07-27T18:58:03.515Z,1.40
2022-07-27T19:00:31.063Z,1.77
2022-07-27T19:02:58.581Z,1.63
2022-07-27T19:05:40.670Z,1.60
2022-07-27T19:08:13.691Z,1.77
2022-07-27T19:10:42.578Z,1.60
2022-07-27T19:13:10.576Z,1.90
2022-07-27T19:15:37.997Z,1.90
2022-07-27T19:18:06.402Z,2.10
2022-07-27T19:20:33.857Z,2.00
2022-07-27T19:23:01.026Z,1.87
2022-07-27T19:25:30.380Z,1.80
2022-07-27T19:27:57.739Z,1.67
2022-07-27T19:30:24.955Z,1.77
2022-07-27T19:32:52.009Z,1.80
2022-07-27T19:35:19.065Z,1.50
2022-07-27T19:37:46.105Z,1.70
2022-07-27T19:40:43.378Z,1.50
2022-07-27T19:43:00.476Z,2.10
2022-07-27T19:45:27.465Z,1.80
2022-07-27T19:47:55.859Z,1.90
2022-07-27T19:50:26.593Z,1.43
2022-07-27T19:52:53.734Z,1.80
2022-07-27T19:55:20.718Z,1.70
2022-07-27T19:57:48.043Z,1.80
2022-07-27T20:00:15.800Z,2.07
2022-07-27T20:02:43.052Z,2.00
2022-07-27T20:05:10.844Z,1.90
2022-07-27T20:07:38.022Z,2.07
2022-07-27T20:10:06.687Z,1.83
2022-07-27T20:12:33.790Z,2.47
2022-07-27T20:15:01.025Z,1.80
2022-07-27T20:17:28.402Z,2.00
2022-07-27T20:19:55.475Z,1.90
2022-07-27T20:22:22.538Z,2.10
2022-07-27T20:24:49.586Z,1.67
2022-07-27T20:27:16.675Z,2.10
2022-07-27T20:29:43.672Z,1.90
2022-07-27T20:32:11.609Z,2.27
2022-07-27T20:34:38.756Z,2.17
2022-07-27T20:37:07.062Z,2.00
2022-07-27T20:39:34.137Z,1.93
2022-07-27T20:42:01.175Z,2.30
2022-07-27T20:44:28.226Z,2.97
2022-07-27T20:46:55.217Z,2.30
2022-07-27T20:49:23.068Z,2.33
2022-07-27T20:51:50.197Z,1.90
2022-07-27T20:54:17.234Z,2.00
2022-07-27T20:56:56.631Z,2.27
2022-07-27T20:59:24.138Z,1.97
2022-07-27T21:01:51.428Z,1.87
2022-07-27T21:04:22.158Z,2.30
2022-07-27T21:06:50.850Z,2.40
2022-07-27T21:09:18.801Z,2.20
2022-07-27T21:11:45.968Z,2.00
2022-07-27T21:14:13.184Z,2.17
2022-07-27T21:16:40.575Z,2.00
2022-07-27T21:19:07.786Z,2.50
2022-07-27T21:21:34.811Z,2.20
2022-07-27T21:24:17.877Z,1.80
2022-07-27T21:26:48.733Z,2.10
2022-07-27T21:29:16.603Z,1.80
2022-07-27T21:31:48.216Z,2.50
2022-07-27T21:34:19.046Z,2.40
2022-07-27T21:36:46.844Z,2.00
2022-07-27T21:39:13.924Z,2.00
2022-07-27T21:41:41.017Z,1.90
2022-07-27T21:44:08.187Z,1.90
2022-07-27T21:46:35.499Z,2.37
2022-07-27T21:49:02.786Z,2.30
2022-07-27T21:51:29.920Z,2.20
2022-07-27T21:53:57.093Z,2.00
2022-07-27T21:56:24.574Z,2.30
2022-07-27T21:58:51.864Z,2.00
2022-07-27T22:01:19.649Z,2.37
2022-07-27T22:03:47.069Z,2.47
2022-07-27T22:06:14.172Z,2.30
2022-07-27T22:08:41.504Z,2.40
2022-07-27T22:11:08.949Z,2.33
2022-07-27T22:13:36.004Z,2.17
2022-07-27T22:16:03.698Z,1.93
2022-07-27T22:18:30.866Z,2.20
2022-07-27T22:20:58.654Z,2.57
2022-07-27T22:23:25.769Z,2.17
2022-07-27T22:25:52.779Z,2.40
2022-07-27T22:28:20.534Z,2.87
2022-07-27T22:31:00.161Z,2.10
2022-07-27T22:33:38.477Z,2.63
2022-07-27T22:36:06.999Z,2.10
2022-07-27T22:38:34.010Z,2.20
2022-07-27T22:41:01.691Z,2.03
2022-07-27T22:43:28.722Z,2.23
2022-07-27T22:45:57.424Z,2.07
2022-07-27T22:48:24.502Z,2.13
2022-07-27T22:50:51.862Z,2.03
2022-07-27T22:53:18.924Z,2.20
2022-07-27T22:55:45.926Z,1.80
2022-07-27T22:58:13.215Z,2.00
2022-07-27T23:00:40.325Z,1.80
2022-07-27T23:03:08.005Z,2.00
2022-07-27T23:05:35.221Z,1.70
2022-07-27T23:08:02.316Z,2.00
2022-07-27T23:10:47.870Z,2.10
2022-07-27T23:13:16.663Z,2.43
2022-07-27T23:15:44.701Z,2.00
2022-07-27T23:18:12.711Z,1.90
2022-07-27T23:20:40.525Z,1.90
2022-07-27T23:23:15.489Z,2.20
2022-07-27T23:25:45.039Z,1.93
2022-07-27T23:28:12.480Z,1.60
2022-07-27T23:30:39.679Z,2.00
2022-07-27T23:33:06.978Z,1.80
2022-07-27T23:35:34.260Z,2.03
2022-07-27T23:38:01.550Z,1.67
2022-07-27T23:40:28.615Z,1.90
2022-07-27T23:42:55.679Z,1.70
2022-07-27T23:45:22.710Z,2.30
2022-07-27T23:47:49.917Z,1.90
2022-07-27T23:50:17.272Z,1.70
2022-07-27T23:52:44.631Z,1.83
2022-07-27T23:55:11.853Z,2.07
2022-07-27T23:57:38.879Z,2.17
